createdAt,value
2019-03-15T00:01:26.025Z,146.55
2019-03-15T00:03:53.040Z,145.65
2019-03-15T00:06:20.104Z,146.43
2019-03-15T00:08:48.485Z,145.38
2019-03-15T00:11:15.543Z,145.22
2019-03-15T00:13:45.400Z,146.07
2019-03-15T00:16:12.527Z,145.17
2019-03-15T00:18:39.677Z,146.13
2019-03-15T00:21:12.412Z,144.57
2019-03-15T00:23:39.464Z,144.90
2019-03-15T00:26:06.483Z,147.05
2019-03-15T00:28:33.516Z,145.95
2019-03-15T00:31:00.563Z,145.85
2019-03-15T00:33:27.872Z,146.37
2019-03-15T00:35:55.269Z,144.95
2019-03-15T00:38:24.002Z,146.10
2019-03-15T00:40:51.199Z,144.95
2019-03-15T00:43:18.256Z,145.30
2019-03-15T00:45:45.293Z,145.05
2019-03-15T00:48:12.651Z,146.75
2019-03-15T00:50:39.703Z,143.68
2019-03-15T00:53:07.038Z,143.65
2019-03-15T00:55:34.465Z,143.20
2019-03-15T00:58:01.747Z,144.55
2019-03-15T01:00:28.777Z,144.07
2019-03-15T01:02:56.143Z,143.57
2019-03-15T01:05:23.357Z,144.95
2019-03-15T01:07:50.374Z,145.68
2019-03-15T01:10:17.409Z,144.47
2019-03-15T01:12:44.449Z,143.30
2019-03-15T01:15:12.073Z,144.22
2019-03-15T01:17:39.510Z,143.90
2019-03-15T01:20:06.628Z,144.72
2019-03-15T01:22:33.794Z,143.52
2019-03-15T01:25:01.435Z,145.15
2019-03-15T01:27:28.575Z,143.70
2019-03-15T01:29:55.620Z,144.97
2019-03-15T01:32:22.983Z,142.70
2019-03-15T01:34:50.079Z,144.90
2019-03-15T01:37:17.140Z,144.70
2019-03-15T01:39:44.992Z,145.77
2019-03-15T01:42:12.052Z,144.72
2019-03-15T01:44:39.098Z,147.35
2019-03-15T01:47:06.141Z,143.70
2019-03-15T01:49:33.630Z,145.87
2019-03-15T01:52:01.141Z,144.82
2019-03-15T01:54:28.472Z,146.47
2019-03-15T01:56:55.708Z,144.80
2019-03-15T01:59:23.047Z,144.95
2019-03-15T02:01:50.125Z,145.40
2019-03-15T02:04:17.245Z,145.68
2019-03-15T02:06:45.302Z,145.77
2019-03-15T02:09:12.829Z,145.75
2019-03-15T02:11:39.921Z,145.77
2019-03-15T02:14:09.621Z,147.17
2019-03-15T02:16:37.438Z,146.57
2019-03-15T02:19:04.594Z,146.13
2019-03-15T02:21:31.649Z,146.05
2019-03-15T02:23:59.129Z,145.43
2019-03-15T02:26:26.281Z,145.47
2019-03-15T02:28:53.849Z,146.25
2019-03-15T02:31:21.340Z,145.40
2019-03-15T02:33:48.623Z,145.47
2019-03-15T02:36:18.375Z,147.78
2019-03-15T02:38:45.426Z,144.35
2019-03-15T02:41:13.894Z,145.02
2019-03-15T02:43:42.020Z,144.72
2019-03-15T02:46:11.617Z,144.50
2019-03-15T02:48:41.082Z,147.10
2019-03-15T02:51:08.237Z,145.80
2019-03-15T02:53:35.680Z,147.47
2019-03-15T02:56:03.346Z,144.17
2019-03-15T02:58:30.359Z,143.87
2019-03-15T03:00:57.765Z,143.97
2019-03-15T03:03:26.881Z,144.13
2019-03-15T03:05:54.310Z,143.37
2019-03-15T03:08:24.307Z,144.62
2019-03-15T03:10:52.680Z,144.75
2019-03-15T03:13:19.698Z,143.93
2019-03-15T03:15:47.082Z,144.35
2019-03-15T03:18:14.165Z,144.50
2019-03-15T03:20:41.251Z,145.82
2019-03-15T03:23:08.273Z,144.82
2019-03-15T03:25:35.321Z,144.97
2019-03-15T03:28:02.347Z,145.32
2019-03-15T03:30:29.812Z,144.85
2019-03-15T03:32:57.088Z,143.78
2019-03-15T03:35:24.469Z,144.80
2019-03-15T03:37:52.001Z,144.30
2019-03-15T03:40:21.344Z,144.22
2019-03-15T03:42:48.505Z,145.22
2019-03-15T03:45:15.539Z,146.72
2019-03-15T03:47:43.450Z,145.07
2019-03-15T03:50:10.787Z,144.87
2019-03-15T03:52:41.517Z,144.35
2019-03-15T03:55:07.517Z,145.20
2019-03-15T03:57:34.780Z,145.28
2019-03-15T04:00:01.861Z,143.70
2019-03-15T04:02:29.370Z,145.45
2019-03-15T04:04:58.243Z,146.25
2019-03-15T04:07:25.572Z,146.98
2019-03-15T04:09:52.635Z,148.93
2019-03-15T04:12:19.666Z,145.28
2019-03-15T04:14:46.712Z,146.50
2019-03-15T04:17:15.853Z,147.55
2019-03-15T04:19:42.929Z,147.68
2019-03-15T04:22:10.321Z,146.55
2019-03-15T04:24:37.385Z,146.93
2019-03-15T04:27:04.402Z,146.05
2019-03-15T04:29:32.193Z,145.50
2019-03-15T04:32:01.457Z,145.87
2019-03-15T04:34:28.728Z,150.40
2019-03-15T04:36:56.475Z,146.57
2019-03-15T04:39:23.537Z,146.87
2019-03-15T04:41:50.638Z,145.02
2019-03-15T04:44:17.653Z,147.07
2019-03-15T04:46:44.783Z,147.05
2019-03-15T04:49:11.827Z,147.25
2019-03-15T04:51:38.902Z,147.93
2019-03-15T04:54:06.614Z,146.25
2019-03-15T04:56:33.664Z,148.55
2019-03-15T04:59:00.705Z,146.85
2019-03-15T05:01:27.790Z,146.55
2019-03-15T05:03:54.891Z,147.05
2019-03-15T05:06:21.976Z,148.25
2019-03-15T05:08:49.064Z,148.35
2019-03-15T05:11:16.119Z,149.05
2019-03-15T05:13:43.535Z,147.57
2019-03-15T05:16:10.591Z,146.70
2019-03-15T05:18:37.619Z,146.50
2019-03-15T05:21:04.658Z,147.55
2019-03-15T05:23:31.894Z,147.98
2019-03-15T05:25:58.920Z,149.45
2019-03-15T05:28:26.357Z,148.80
2019-03-15T05:30:54.613Z,148.43
2019-03-15T05:33:22.854Z,147.82
2019-03-15T05:35:50.353Z,148.20
2019-03-15T05:38:17.400Z,149.23
2019-03-15T05:40:44.495Z,148.10
2019-03-15T05:43:13.131Z,149.62
2019-03-15T05:45:40.178Z,148.93
2019-03-15T05:48:09.008Z,148.13
2019-03-15T05:50:36.342Z,148.97
2019-03-15T05:53:03.449Z,150.12
2019-03-15T05:55:30.643Z,152.50
2019-03-15T05:58:03.893Z,149.72
2019-03-15T06:00:31.378Z,152.62
2019-03-15T06:02:58.395Z,153.65
2019-03-15T06:05:25.789Z,151.05
2019-03-15T06:07:53.137Z,150.85
2019-03-15T06:10:20.178Z,149.40
2019-03-15T06:12:47.383Z,150.03
2019-03-15T06:15:14.469Z,149.20
2019-03-15T06:17:45.711Z,148.17
2019-03-15T06:20:12.779Z,148.53
2019-03-15T06:22:40.275Z,147.93
2019-03-15T06:25:07.579Z,149.18
2019-03-15T06:27:34.677Z,149.30
2019-03-15T06:30:01.843Z,150.78
2019-03-15T06:32:30.358Z,149.68
2019-03-15T06:34:57.415Z,150.27
2019-03-15T06:37:25.011Z,150.90
2019-03-15T06:39:52.040Z,150.00
2019-03-15T06:42:24.835Z,151.18
2019-03-15T06:45:04.869Z,152.30
2019-03-15T06:47:32.492Z,152.72
2019-03-15T06:49:59.547Z,150.22
2019-03-15T06:52:26.614Z,153.50
2019-03-15T06:54:53.720Z,152.12
2019-03-15T06:57:21.878Z,151.07
2019-03-15T06:59:48.953Z,150.87
2019-03-15T07:02:16.011Z,152.22
2019-03-15T07:04:43.304Z,150.50
2019-03-15T07:07:15.101Z,150.87
2019-03-15T07:09:41.149Z,151.02
2019-03-15T07:12:09.711Z,149.12
2019-03-15T07:14:37.205Z,151.12
2019-03-15T07:17:04.275Z,150.25
2019-03-15T07:19:31.310Z,151.45
2019-03-15T07:21:58.756Z,151.37
2019-03-15T07:24:25.892Z,151.57
2019-03-15T07:26:54.296Z,150.85
2019-03-15T07:29:21.820Z,152.30
2019-03-15T07:31:48.873Z,149.35
2019-03-15T07:34:17.435Z,149.85
2019-03-15T07:36:44.478Z,150.30
2019-03-15T07:39:12.972Z,151.53
2019-03-15T07:41:40.273Z,151.12
2019-03-15T07:44:07.774Z,153.02
2019-03-15T07:46:34.821Z,148.80
2019-03-15T07:49:01.931Z,148.80
2019-03-15T07:51:29.060Z,149.27
2019-03-15T07:53:56.184Z,150.03
2019-03-15T07:56:24.660Z,151.93
2019-03-15T07:58:52.170Z,150.15
2019-03-15T08:01:19.254Z,151.42
2019-03-15T08:03:46.253Z,150.93
2019-03-15T08:06:13.643Z,151.65
2019-03-15T08:08:40.860Z,152.25
2019-03-15T08:11:08.236Z,149.70
2019-03-15T08:13:36.293Z,150.57
2019-03-15T08:16:03.534Z,151.53
2019-03-15T08:18:30.562Z,149.62
2019-03-15T08:20:57.980Z,151.50
2019-03-15T08:23:25.067Z,149.07
2019-03-15T08:25:52.435Z,151.63
2019-03-15T08:28:19.778Z,151.80
2019-03-15T08:31:17.764Z,154.03
2019-03-15T08:33:44.897Z,150.50
2019-03-15T08:36:12.334Z,150.78
2019-03-15T08:38:47.288Z,152.43
2019-03-15T08:41:08.366Z,149.62
2019-03-15T08:43:38.211Z,151.50
2019-03-15T08:46:05.371Z,149.72
2019-03-15T08:48:34.676Z,150.03
2019-03-15T08:51:02.156Z,150.93
2019-03-15T08:53:29.363Z,152.47
2019-03-15T08:55:56.404Z,149.53
2019-03-15T08:58:23.507Z,151.68
2019-03-15T09:00:50.578Z,153.23
2019-03-15T09:03:27.785Z,152.53
2019-03-15T09:05:47.202Z,152.12
2019-03-15T09:08:15.743Z,153.35
2019-03-15T09:10:42.839Z,151.30
2019-03-15T09:13:10.943Z,153.72
2019-03-15T09:15:38.177Z,152.35
2019-03-15T09:18:06.777Z,152.70
2019-03-15T09:20:37.576Z,152.20
2019-03-15T09:23:07.202Z,152.45
2019-03-15T09:25:34.901Z,152.25
2019-03-15T09:28:02.195Z,152.65
2019-03-15T09:30:29.618Z,154.20
2019-03-15T09:33:04.825Z,152.17
2019-03-15T09:35:32.139Z,151.85
2019-03-15T09:38:01.990Z,151.07
2019-03-15T09:40:29.368Z,151.70
2019-03-15T09:42:59.718Z,148.93
2019-03-15T09:45:30.191Z,149.32
2019-03-15T09:47:59.110Z,151.00
2019-03-15T09:50:36.008Z,150.38
2019-03-15T09:52:55.247Z,149.07
2019-03-15T09:55:32.763Z,151.35
2019-03-15T09:57:55.365Z,152.85
2019-03-15T10:00:22.861Z,149.80
2019-03-15T10:02:50.185Z,149.77
2019-03-15T10:05:17.262Z,149.40
2019-03-15T10:07:44.450Z,150.22
2019-03-15T10:10:13.764Z,149.55
2019-03-15T10:12:40.619Z,150.85
2019-03-15T10:15:09.601Z,149.55
2019-03-15T10:17:36.708Z,150.03
2019-03-15T10:20:04.869Z,149.02
2019-03-15T10:22:31.928Z,150.07
2019-03-15T10:24:59.063Z,149.77
2019-03-15T10:27:26.115Z,148.97
2019-03-15T10:29:53.159Z,151.57
2019-03-15T10:32:20.374Z,152.40
2019-03-15T10:34:49.452Z,151.50
2019-03-15T10:37:16.503Z,150.03
2019-03-15T10:39:43.808Z,151.50
2019-03-15T10:42:10.972Z,151.93
2019-03-15T10:44:39.168Z,149.80
2019-03-15T10:47:06.240Z,152.60
2019-03-15T10:49:33.905Z,150.30
2019-03-15T10:52:00.965Z,152.05
2019-03-15T10:54:28.480Z,150.60
2019-03-15T10:56:55.656Z,154.63
2019-03-15T10:59:24.628Z,150.85
2019-03-15T11:01:52.000Z,149.75
2019-03-15T11:04:19.149Z,150.22
2019-03-15T11:06:46.533Z,151.82
2019-03-15T11:09:30.614Z,150.90
2019-03-15T11:12:00.376Z,151.68
2019-03-15T11:14:27.444Z,151.42
2019-03-15T11:16:54.486Z,150.62
2019-03-15T11:19:21.566Z,151.20
2019-03-15T11:21:49.097Z,150.97
2019-03-15T11:24:16.186Z,150.30
2019-03-15T11:26:43.218Z,150.95
2019-03-15T11:29:10.542Z,150.42
2019-03-15T11:31:37.648Z,150.95
2019-03-15T11:34:04.734Z,151.47
2019-03-15T11:36:33.659Z,149.72
2019-03-15T11:39:00.734Z,150.27
2019-03-15T11:41:28.339Z,151.02
2019-03-15T11:43:56.569Z,151.22
2019-03-15T11:46:23.644Z,149.97
2019-03-15T11:48:50.686Z,151.32
2019-03-15T11:51:17.794Z,151.82
2019-03-15T11:53:45.047Z,149.82
2019-03-15T11:56:12.073Z,151.40
2019-03-15T11:58:39.183Z,152.17
2019-03-15T12:01:06.960Z,150.60
2019-03-15T12:03:34.178Z,149.42
2019-03-15T12:06:01.475Z,148.05
2019-03-15T12:08:28.530Z,148.70
2019-03-15T12:10:55.609Z,150.40
2019-03-15T12:13:24.018Z,149.12
2019-03-15T12:15:51.150Z,150.07
2019-03-15T12:18:18.234Z,152.27
2019-03-15T12:20:48.999Z,150.90
2019-03-15T12:23:14.848Z,151.60
2019-03-15T12:25:41.910Z,151.82
2019-03-15T12:28:09.545Z,151.30
2019-03-15T12:30:42.867Z,151.65
2019-03-15T12:33:08.808Z,148.95
2019-03-15T12:35:37.619Z,151.37
2019-03-15T12:38:18.383Z,152.43
2019-03-15T12:40:46.451Z,150.57
2019-03-15T12:43:14.182Z,151.97
2019-03-15T12:45:41.380Z,154.10
2019-03-15T12:48:08.750Z,152.17
2019-03-15T12:50:36.808Z,151.60
2019-03-15T12:53:05.075Z,151.18
2019-03-15T12:55:32.686Z,150.32
2019-03-15T12:57:59.986Z,151.30
2019-03-15T13:00:27.137Z,151.22
2019-03-15T13:02:54.441Z,149.70
2019-03-15T13:05:21.684Z,151.35
2019-03-15T13:07:48.737Z,151.87
2019-03-15T13:10:16.202Z,152.57
2019-03-15T13:12:44.383Z,151.68
2019-03-15T13:15:11.983Z,152.25
2019-03-15T13:17:39.529Z,152.38
2019-03-15T13:20:13.605Z,152.12
2019-03-15T13:22:42.116Z,150.72
2019-03-15T13:25:12.819Z,150.90
2019-03-15T13:27:41.232Z,152.22
2019-03-15T13:30:08.734Z,149.55
2019-03-15T13:32:38.063Z,148.43
2019-03-15T13:35:05.655Z,149.87
2019-03-15T13:37:33.041Z,150.22
2019-03-15T13:40:02.226Z,149.05
2019-03-15T13:42:29.950Z,149.53
2019-03-15T13:44:57.327Z,152.22
2019-03-15T13:47:27.202Z,150.42
2019-03-15T13:49:55.696Z,151.00
2019-03-15T13:52:25.195Z,151.12
2019-03-15T13:54:52.604Z,148.70
2019-03-15T13:57:21.574Z,149.68
2019-03-15T13:59:50.206Z,152.87
2019-03-15T14:02:18.177Z,149.38
2019-03-15T14:04:45.214Z,149.90
2019-03-15T14:07:15.376Z,150.12
2019-03-15T14:09:43.835Z,152.10
2019-03-15T14:12:10.896Z,151.47
2019-03-15T14:14:48.105Z,149.07
2019-03-15T14:17:17.868Z,149.35
2019-03-15T14:19:44.955Z,150.75
2019-03-15T14:22:28.021Z,150.18
2019-03-15T14:24:55.338Z,151.50
2019-03-15T14:27:37.022Z,152.45
2019-03-15T14:29:57.743Z,151.97
2019-03-15T14:32:29.580Z,152.60
2019-03-15T14:35:01.508Z,150.42
2019-03-15T14:37:33.281Z,154.45
2019-03-15T14:40:20.055Z,150.22
2019-03-15T14:42:48.745Z,150.57
2019-03-15T14:45:15.987Z,150.30
2019-03-15T14:47:49.032Z,151.57
2019-03-15T14:50:24.071Z,148.80
2019-03-15T14:52:51.582Z,149.02
2019-03-15T14:55:22.837Z,149.60
2019-03-15T14:57:53.508Z,149.75
2019-03-15T15:00:21.944Z,149.25
2019-03-15T15:02:48.981Z,148.22
2019-03-15T15:05:16.063Z,150.60
2019-03-15T15:07:44.241Z,150.82
2019-03-15T15:10:12.475Z,150.40
2019-03-15T15:12:39.800Z,152.60
2019-03-15T15:15:14.746Z,153.35
2019-03-15T15:17:49.952Z,150.47
2019-03-15T15:20:17.321Z,153.80
2019-03-15T15:22:44.347Z,150.93
2019-03-15T15:25:11.677Z,150.53
2019-03-15T15:27:48.796Z,151.55
2019-03-15T15:30:17.284Z,150.22
2019-03-15T15:32:44.343Z,150.40
2019-03-15T15:35:11.678Z,150.38
2019-03-15T15:37:38.789Z,149.85
2019-03-15T15:40:08.315Z,148.45
2019-03-15T15:42:35.381Z,149.30
2019-03-15T15:45:04.513Z,150.82
2019-03-15T15:47:33.451Z,150.95
2019-03-15T15:50:00.643Z,151.63
2019-03-15T15:52:27.936Z,149.07
2019-03-15T15:54:55.035Z,150.42
2019-03-15T15:57:22.177Z,148.90
2019-03-15T15:59:49.399Z,149.55
2019-03-15T16:02:16.458Z,149.72
2019-03-15T16:04:43.680Z,150.78
2019-03-15T16:07:11.107Z,150.57
2019-03-15T16:09:38.276Z,149.35
2019-03-15T16:12:05.328Z,150.27
2019-03-15T16:14:34.942Z,150.10
2019-03-15T16:17:02.186Z,151.65
2019-03-15T16:19:29.423Z,149.95
2019-03-15T16:21:59.383Z,149.20
2019-03-15T16:24:26.656Z,152.38
2019-03-15T16:26:53.716Z,150.12
2019-03-15T16:29:22.371Z,150.53
2019-03-15T16:31:49.410Z,149.57
2019-03-15T16:34:16.451Z,153.65
2019-03-15T16:36:43.644Z,152.02
2019-03-15T16:39:10.978Z,151.90
2019-03-15T16:41:42.066Z,153.32
2019-03-15T16:44:14.231Z,152.87
2019-03-15T16:46:43.196Z,152.60
2019-03-15T16:49:17.179Z,149.12
2019-03-15T16:51:44.345Z,151.32
2019-03-15T16:54:15.682Z,149.77
2019-03-15T16:56:43.187Z,150.57
2019-03-15T16:59:15.544Z,149.70
2019-03-15T17:01:43.616Z,150.10
2019-03-15T17:04:11.369Z,149.27
2019-03-15T17:06:42.501Z,152.85
2019-03-15T17:09:30.233Z,153.10
2019-03-15T17:11:57.767Z,149.55
2019-03-15T17:14:25.978Z,150.03
2019-03-15T17:16:53.281Z,151.87
2019-03-15T17:19:21.060Z,151.07
2019-03-15T17:21:56.321Z,149.40
2019-03-15T17:24:26.052Z,150.87
2019-03-15T17:26:53.243Z,149.57
2019-03-15T17:29:20.399Z,150.45
2019-03-15T17:31:47.556Z,154.42
2019-03-15T17:34:14.723Z,150.70
2019-03-15T17:36:41.828Z,152.27
2019-03-15T17:39:08.894Z,154.00
2019-03-15T17:41:36.089Z,150.68
2019-03-15T17:47:41.762Z,151.68
2019-03-15T17:50:11.192Z,151.60
2019-03-15T17:52:38.322Z,155.70
2019-03-15T17:55:05.868Z,151.40
2019-03-15T17:57:34.753Z,151.22
2019-03-15T18:00:13.639Z,151.85
2019-03-15T18:02:41.279Z,154.53
2019-03-15T18:05:08.769Z,150.05
2019-03-15T18:07:35.868Z,150.27
2019-03-15T18:10:03.829Z,150.03
2019-03-15T18:12:43.587Z,155.22
2019-03-15T18:15:10.730Z,150.80
2019-03-15T18:17:48.665Z,149.32
2019-03-15T18:20:15.916Z,149.93
2019-03-15T18:22:45.000Z,151.60
2019-03-15T18:25:12.061Z,152.47
2019-03-15T18:27:39.421Z,149.85
2019-03-15T18:30:07.482Z,150.93
2019-03-15T18:32:34.564Z,148.53
2019-03-15T18:35:01.798Z,149.82
2019-03-15T18:37:29.174Z,150.47
2019-03-15T18:39:56.644Z,150.30
2019-03-15T18:42:24.292Z,150.87
2019-03-15T18:44:52.288Z,149.15
2019-03-15T18:47:21.420Z,148.15
2019-03-15T18:49:49.205Z,148.65
2019-03-15T18:52:19.420Z,149.32
2019-03-15T18:54:47.758Z,149.57
2019-03-15T18:57:15.306Z,148.78
2019-03-15T18:59:42.426Z,150.55
2019-03-15T19:02:09.570Z,148.28
2019-03-15T19:04:36.724Z,147.62
2019-03-15T19:07:03.777Z,148.72
2019-03-15T19:09:30.995Z,149.85
2019-03-15T19:11:58.095Z,148.25
2019-03-15T19:14:28.267Z,149.65
2019-03-15T19:16:59.669Z,149.27
2019-03-15T19:19:27.957Z,149.35
2019-03-15T19:21:57.044Z,150.20
2019-03-15T19:24:24.116Z,149.42
2019-03-15T19:26:51.355Z,148.85
2019-03-15T19:29:18.656Z,149.23
2019-03-15T19:31:45.741Z,147.90
2019-03-15T19:34:12.812Z,150.10
2019-03-15T19:36:40.241Z,148.68
2019-03-15T19:39:07.351Z,150.07
2019-03-15T19:41:34.587Z,147.82
2019-03-15T19:44:03.502Z,147.35
2019-03-15T19:46:30.711Z,149.53
2019-03-15T19:48:57.897Z,148.95
2019-03-15T19:51:25.107Z,150.27
2019-03-15T19:53:54.352Z,147.60
2019-03-15T19:56:23.235Z,148.32
2019-03-15T19:58:50.288Z,149.93
2019-03-15T20:01:17.522Z,148.32
2019-03-15T20:03:45.069Z,149.50
2019-03-15T20:06:12.803Z,149.47
2019-03-15T20:08:41.463Z,148.97
2019-03-15T20:11:10.845Z,149.05
2019-03-15T20:13:38.010Z,148.38
2019-03-15T20:16:05.174Z,147.25
2019-03-15T20:18:32.220Z,148.00
2019-03-15T20:20:59.409Z,149.75
2019-03-15T20:23:26.938Z,147.45
2019-03-15T20:25:54.206Z,148.32
2019-03-15T20:28:21.676Z,147.25
2019-03-15T20:30:52.187Z,149.40
2019-03-15T20:33:19.889Z,147.70
2019-03-15T20:35:47.078Z,146.95
2019-03-15T20:38:14.709Z,148.35
2019-03-15T20:40:41.909Z,147.95
2019-03-15T20:43:08.982Z,148.25
2019-03-15T20:45:36.276Z,147.55
2019-03-15T20:48:03.399Z,149.25
2019-03-15T20:50:30.613Z,147.82
2019-03-15T20:53:07.841Z,147.53
2019-03-15T20:55:28.916Z,147.40
2019-03-15T20:57:56.911Z,146.98
2019-03-15T21:00:34.848Z,148.72
2019-03-15T21:02:53.699Z,147.15
2019-03-15T21:05:20.773Z,148.28
2019-03-15T21:07:48.397Z,147.30
2019-03-15T21:10:15.833Z,149.00
2019-03-15T21:12:42.927Z,147.20
2019-03-15T21:15:10.418Z,146.72
2019-03-15T21:17:38.421Z,147.57
2019-03-15T21:20:08.486Z,148.78
2019-03-15T21:22:38.506Z,147.28
2019-03-15T21:25:06.476Z,149.90
2019-03-15T21:27:33.647Z,148.10
2019-03-15T21:30:00.994Z,147.50
2019-03-15T21:32:34.442Z,150.18
2019-03-15T21:35:01.854Z,149.07
2019-03-15T21:37:29.846Z,148.80
2019-03-15T21:39:57.777Z,147.35
2019-03-15T21:42:25.242Z,148.45
2019-03-15T21:44:52.296Z,149.25
2019-03-15T21:47:19.866Z,147.80
2019-03-15T21:49:46.982Z,150.18
2019-03-15T21:52:14.128Z,150.40
2019-03-15T21:54:41.531Z,149.12
2019-03-15T21:57:08.642Z,148.22
2019-03-15T21:59:39.116Z,149.38
2019-03-15T22:02:06.886Z,147.30
2019-03-15T22:04:34.021Z,147.62
2019-03-15T22:07:01.345Z,147.53
2019-03-15T22:09:28.570Z,148.38
2019-03-15T22:11:55.676Z,150.62
2019-03-15T22:14:22.771Z,149.18
2019-03-15T22:16:50.403Z,148.75
2019-03-15T22:19:18.589Z,148.35
2019-03-15T22:21:45.671Z,148.30
2019-03-15T22:24:13.155Z,148.47
2019-03-15T22:26:40.331Z,150.70
2019-03-15T22:29:07.757Z,148.07
2019-03-15T22:31:35.973Z,147.17
2019-03-15T22:34:04.985Z,149.12
2019-03-15T22:36:32.206Z,149.95
2019-03-15T22:38:59.297Z,147.98
2019-03-15T22:41:26.358Z,150.57
2019-03-15T22:44:05.456Z,149.07
2019-03-15T22:46:38.347Z,151.65
2019-03-15T22:49:14.703Z,149.68
2019-03-15T22:51:41.723Z,150.03
2019-03-15T22:54:08.695Z,150.30
2019-03-15T22:56:38.616Z,149.97
2019-03-15T22:59:07.505Z,148.10
2019-03-15T23:01:34.570Z,149.15
2019-03-15T23:04:01.663Z,148.07
2019-03-15T23:06:28.876Z,148.75
2019-03-15T23:08:56.430Z,148.40
2019-03-15T23:11:23.577Z,148.13
2019-03-15T23:13:52.547Z,150.95
2019-03-15T23:16:20.788Z,152.35
2019-03-15T23:18:48.151Z,151.10
2019-03-15T23:21:15.337Z,147.87
2019-03-15T23:23:42.372Z,151.18
2019-03-15T23:26:10.055Z,150.38
2019-03-15T23:28:37.145Z,147.53
2019-03-15T23:31:04.215Z,148.38
2019-03-15T23:33:33.090Z,148.97
2019-03-15T23:36:00.196Z,147.40
2019-03-15T23:38:27.249Z,148.50
2019-03-15T23:40:58.686Z,149.97
2019-03-15T23:43:25.751Z,146.80
2019-03-15T23:45:54.634Z,147.53
2019-03-15T23:48:21.739Z,147.72
2019-03-15T23:50:48.777Z,148.82
2019-03-15T23:53:15.877Z,147.20
2019-03-15T23:55:42.975Z,149.27
2019-03-15T23:58:10.061Z,146.85
